Kilrush, Ireland
Current Conditions -  °F | °C
As of 7:00 AM on Wednesday 22 Oct 2014 (Local Time) from EINN Reporting Station
Broken Clouds Broken Clouds  
Wind Chill: 54°   Ceiling: 9000
Heat Index: 54°   Visibility: 6mi
Dew Point: 39°   Wind: 12mph
Humidity: 58%   Direction: 240°WSW
Pressure: 30.27"   Gusts: NA
Location:  52.63°N, 9.49°W
Report Text: EINN 220700Z 24010KT 9999 SCT033 BKN090 12/04 Q1025 NOSIG
Loading
Personal Weather Stations






























Interactive Weather Map
Tropical Storm Tracking
New forecast layout! Learn more

10-Day Weather Forecast

Advertisements
Track Severe Weather on mobile